sensor_id;sensor_type;location;lat;lon;timestamp;temperature;humidity
13223;DHT22;6676;45.192;5.722;2023-03-13T00:00:14;11.80;99.90
13223;DHT22;6676;45.192;5.722;2023-03-13T00:03:06;11.80;99.90
13223;DHT22;6676;45.192;5.722;2023-03-13T00:08:37;11.90;99.90
13223;DHT22;6676;45.192;5.722;2023-03-13T00:14:09;11.90;99.90
13223;DHT22;6676;45.192;5.722;2023-03-13T00:17:00;11.90;99.90
13223;DHT22;6676;45.192;5.722;2023-03-13T00:22:32;11.90;99.90
13223;DHT22;6676;45.192;5.722;2023-03-13T00:25:24;11.90;99.90
13223;DHT22;6676;45.192;5.722;2023-03-13T00:31:05;11.90;99.90
13223;DHT22;6676;45.192;5.722;2023-03-13T00:33:59;11.90;99.90
13223;DHT22;6676;45.192;5.722;2023-03-13T00:36:52;11.90;99.90
13223;DHT22;6676;45.192;5.722;2023-03-13T00:39:47;12.00;99.90
13223;DHT22;6676;45.192;5.722;2023-03-13T00:42:39;12.00;99.90
13223;DHT22;6676;45.192;5.722;2023-03-13T00:48:17;12.00;99.90
13223;DHT22;6676;45.192;5.722;2023-03-13T00:51:09;12.10;99.90
13223;DHT22;6676;45.192;5.722;2023-03-13T00:54:04;12.10;99.90
13223;DHT22;6676;45.192;5.722;2023-03-13T00:56:56;12.10;99.90
13223;DHT22;6676;45.192;5.722;2023-03-13T00:59:47;12.10;99.90
13223;DHT22;6676;45.192;5.722;2023-03-13T01:02:42;12.10;99.90
13223;DHT22;6676;45.192;5.722;2023-03-13T01:05:34;12.00;99.90
13223;DHT22;6676;45.192;5.722;2023-03-13T01:08:29;12.00;99.90
13223;DHT22;6676;45.192;5.722;2023-03-13T01:11:24;12.00;99.90
13223;DHT22;6676;45.192;5.722;2023-03-13T01:14:18;12.00;99.90
13223;DHT22;6676;45.192;5.722;2023-03-13T01:17:10;12.00;99.90
13223;DHT22;6676;45.192;5.722;2023-03-13T01:20:02;12.00;99.90
13223;DHT22;6676;45.192;5.722;2023-03-13T01:22:54;12.10;99.90
13223;DHT22;6676;45.192;5.722;2023-03-13T01:28:25;12.10;99.90
13223;DHT22;6676;45.192;5.722;2023-03-13T01:34:16;12.10;99.90
13223;DHT22;6676;45.192;5.722;2023-03-13T01:37:07;12.10;99.90
13223;DHT22;6676;45.192;5.722;2023-03-13T01:39:59;12.10;99.90
13223;DHT22;6676;45.192;5.722;2023-03-13T01:46:04;12.00;99.90
13223;DHT22;6676;45.192;5.722;2023-03-13T01:52:22;12.00;99.90
13223;DHT22;6676;45.192;5.722;2023-03-13T02:01:15;11.80;99.90
13223;DHT22;6676;45.192;5.722;2023-03-13T02:13:07;11.70;99.90
13223;DHT22;6676;45.192;5.722;2023-03-13T02:16:01;11.70;99.90
13223;DHT22;6676;45.192;5.722;2023-03-13T02:21:38;11.70;99.90
13223;DHT22;6676;45.192;5.722;2023-03-13T02:27:09;11.60;99.90
13223;DHT22;6676;45.192;5.722;2023-03-13T02:30:04;11.60;99.90
13223;DHT22;6676;45.192;5.722;2023-03-13T02:33:06;11.60;99.90
13223;DHT22;6676;45.192;5.722;2023-03-13T02:36:05;11.60;99.90
13223;DHT22;6676;45.192;5.722;2023-03-13T02:39:00;11.50;99.90
13223;DHT22;6676;45.192;5.722;2023-03-13T02:41:53;11.50;99.90
13223;DHT22;6676;45.192;5.722;2023-03-13T02:47:25;11.50;99.90
13223;DHT22;6676;45.192;5.722;2023-03-13T02:50:18;11.40;99.90
13223;DHT22;6676;45.192;5.722;2023-03-13T02:53:11;11.40;99.90
13223;DHT22;6676;45.192;5.722;2023-03-13T02:56:05;11.40;99.90
13223;DHT22;6676;45.192;5.722;2023-03-13T02:58:57;11.40;99.90
13223;DHT22;6676;45.192;5.722;2023-03-13T03:01:49;11.40;99.90
13223;DHT22;6676;45.192;5.722;2023-03-13T03:04:53;11.40;99.90
13223;DHT22;6676;45.192;5.722;2023-03-13T03:07:46;11.40;99.90
13223;DHT22;6676;45.192;5.722;2023-03-13T03:13:21;11.30;99.90
13223;DHT22;6676;45.192;5.722;2023-03-13T03:16:14;11.30;99.90
13223;DHT22;6676;45.192;5.722;2023-03-13T03:21:46;11.30;99.90
13223;DHT22;6676;45.192;5.722;2023-03-13T03:24:40;11.30;99.90
13223;DHT22;6676;45.192;5.722;2023-03-13T03:27:31;11.30;99.90
13223;DHT22;6676;45.192;5.722;2023-03-13T03:33:06;11.20;99.90
13223;DHT22;6676;45.192;5.722;2023-03-13T03:38:41;11.20;99.90
13223;DHT22;6676;45.192;5.722;2023-03-13T03:41:34;11.20;99.90
13223;DHT22;6676;45.192;5.722;2023-03-13T03:47:07;11.20;99.90
13223;DHT22;6676;45.192;5.722;2023-03-13T03:50:00;11.20;99.90
13223;DHT22;6676;45.192;5.722;2023-03-13T03:55:34;11.20;99.90
13223;DHT22;6676;45.192;5.722;2023-03-13T04:01:05;11.30;99.90
13223;DHT22;6676;45.192;5.722;2023-03-13T04:06:36;11.40;99.90
13223;DHT22;6676;45.192;5.722;2023-03-13T04:09:29;11.40;99.90
13223;DHT22;6676;45.192;5.722;2023-03-13T04:15:04;11.30;99.90
13223;DHT22;6676;45.192;5.722;2023-03-13T04:17:57;11.30;99.90
13223;DHT22;6676;45.192;5.722;2023-03-13T04:20:49;11.30;99.90
13223;DHT22;6676;45.192;5.722;2023-03-13T04:23:40;11.20;99.90
13223;DHT22;6676;45.192;5.722;2023-03-13T04:29:13;11.20;99.90
13223;DHT22;6676;45.192;5.722;2023-03-13T04:32:12;11.20;99.90
13223;DHT22;6676;45.192;5.722;2023-03-13T04:37:56;11.10;99.90
13223;DHT22;6676;45.192;5.722;2023-03-13T04:43:31;11.00;99.90
13223;DHT22;6676;45.192;5.722;2023-03-13T04:46:24;11.00;99.90
13223;DHT22;6676;45.192;5.722;2023-03-13T04:52:01;11.00;99.90
13223;DHT22;6676;45.192;5.722;2023-03-13T04:57:53;11.10;99.90
13223;DHT22;6676;45.192;5.722;2023-03-13T05:06:22;11.00;99.90
13223;DHT22;6676;45.192;5.722;2023-03-13T05:09:27;10.90;99.90
13223;DHT22;6676;45.192;5.722;2023-03-13T05:12:33;10.90;99.90
13223;DHT22;6676;45.192;5.722;2023-03-13T05:15:28;10.90;99.90
13223;DHT22;6676;45.192;5.722;2023-03-13T05:21:18;10.90;99.90
13223;DHT22;6676;45.192;5.722;2023-03-13T05:26:53;10.90;99.90
13223;DHT22;6676;45.192;5.722;2023-03-13T05:32:25;10.90;99.90
13223;DHT22;6676;45.192;5.722;2023-03-13T05:35:21;10.90;99.90
13223;DHT22;6676;45.192;5.722;2023-03-13T05:40:56;10.80;99.90
13223;DHT22;6676;45.192;5.722;2023-03-13T05:46:34;10.70;99.90
13223;DHT22;6676;45.192;5.722;2023-03-13T05:49:33;10.70;99.90
13223;DHT22;6676;45.192;5.722;2023-03-13T05:52:27;10.60;99.90
13223;DHT22;6676;45.192;5.722;2023-03-13T05:55:26;10.60;99.90
13223;DHT22;6676;45.192;5.722;2023-03-13T05:58:38;10.60;99.90
13223;DHT22;6676;45.192;5.722;2023-03-13T06:01:30;10.50;99.90
13223;DHT22;6676;45.192;5.722;2023-03-13T06:04:23;10.50;99.90
13223;DHT22;6676;45.192;5.722;2023-03-13T06:07:15;10.60;99.90
13223;DHT22;6676;45.192;5.722;2023-03-13T06:12:52;10.60;99.90
13223;DHT22;6676;45.192;5.722;2023-03-13T06:15:53;10.50;99.90
13223;DHT22;6676;45.192;5.722;2023-03-13T06:21:36;10.50;99.90
13223;DHT22;6676;45.192;5.722;2023-03-13T06:24:27;10.50;99.90
13223;DHT22;6676;45.192;5.722;2023-03-13T06:27:19;10.50;99.90
13223;DHT22;6676;45.192;5.722;2023-03-13T06:30:19;10.50;99.90
13223;DHT22;6676;45.192;5.722;2023-03-13T06:33:10;10.50;99.90
13223;DHT22;6676;45.192;5.722;2023-03-13T06:36:03;10.60;99.90
13223;DHT22;6676;45.192;5.722;2023-03-13T06:39:16;10.60;99.90
13223;DHT22;6676;45.192;5.722;2023-03-13T06:42:08;10.60;99.90
13223;DHT22;6676;45.192;5.722;2023-03-13T06:44:59;10.70;99.90
13223;DHT22;6676;45.192;5.722;2023-03-13T06:47:51;10.70;99.90
13223;DHT22;6676;45.192;5.722;2023-03-13T06:50:43;10.80;99.90
13223;DHT22;6676;45.192;5.722;2023-03-13T06:53:34;10.80;99.90
13223;DHT22;6676;45.192;5.722;2023-03-13T06:56:26;10.70;99.90
13223;DHT22;6676;45.192;5.722;2023-03-13T06:59:17;10.70;99.90
13223;DHT22;6676;45.192;5.722;2023-03-13T07:02:10;10.70;99.90
13223;DHT22;6676;45.192;5.722;2023-03-13T07:05:02;10.70;99.90
13223;DHT22;6676;45.192;5.722;2023-03-13T07:07:54;10.60;99.90
13223;DHT22;6676;45.192;5.722;2023-03-13T07:13:25;10.80;99.90
13223;DHT22;6676;45.192;5.722;2023-03-13T07:16:17;10.80;99.90
13223;DHT22;6676;45.192;5.722;2023-03-13T07:19:08;10.90;99.90
13223;DHT22;6676;45.192;5.722;2023-03-13T07:24:44;11.10;99.90
13223;DHT22;6676;45.192;5.722;2023-03-13T07:27:36;11.40;99.90
13223;DHT22;6676;45.192;5.722;2023-03-13T07:30:27;11.50;99.90
13223;DHT22;6676;45.192;5.722;2023-03-13T07:33:19;11.50;99.90
13223;DHT22;6676;45.192;5.722;2023-03-13T07:38:51;11.50;99.90
13223;DHT22;6676;45.192;5.722;2023-03-13T07:41:43;11.60;99.90
13223;DHT22;6676;45.192;5.722;2023-03-13T07:47:20;11.80;99.90
13223;DHT22;6676;45.192;5.722;2023-03-13T07:50:12;12.10;99.90
13223;DHT22;6676;45.192;5.722;2023-03-13T07:53:03;12.20;99.90
13223;DHT22;6676;45.192;5.722;2023-03-13T07:55:58;12.20;99.90
13223;DHT22;6676;45.192;5.722;2023-03-13T08:01:35;12.40;99.90
13223;DHT22;6676;45.192;5.722;2023-03-13T08:04:26;12.50;99.90
13223;DHT22;6676;45.192;5.722;2023-03-13T08:12:53;12.80;99.90
13223;DHT22;6676;45.192;5.722;2023-03-13T08:15:51;12.70;99.90
13223;DHT22;6676;45.192;5.722;2023-03-13T08:21:27;12.80;99.90
13223;DHT22;6676;45.192;5.722;2023-03-13T08:24:19;12.90;99.90
13223;DHT22;6676;45.192;5.722;2023-03-13T08:27:11;13.00;99.90
13223;DHT22;6676;45.192;5.722;2023-03-13T08:30:04;13.10;99.90
13223;DHT22;6676;45.192;5.722;2023-03-13T08:32:55;13.10;99.90
13223;DHT22;6676;45.192;5.722;2023-03-13T08:35:47;13.10;99.90
13223;DHT22;6676;45.192;5.722;2023-03-13T08:41:32;13.20;99.90
13223;DHT22;6676;45.192;5.722;2023-03-13T08:47:07;13.30;99.90
13223;DHT22;6676;45.192;5.722;2023-03-13T08:50:09;13.40;99.90
13223;DHT22;6676;45.192;5.722;2023-03-13T08:53:07;13.50;99.90
13223;DHT22;6676;45.192;5.722;2023-03-13T08:55:58;13.50;99.90
13223;DHT22;6676;45.192;5.722;2023-03-13T09:12:44;13.50;99.90
13223;DHT22;6676;45.192;5.722;2023-03-13T09:15:39;13.60;99.90
13223;DHT22;6676;45.192;5.722;2023-03-13T09:21:15;13.70;99.90
13223;DHT22;6676;45.192;5.722;2023-03-13T09:24:14;13.90;99.90
13223;DHT22;6676;45.192;5.722;2023-03-13T09:27:09;13.80;99.90
13223;DHT22;6676;45.192;5.722;2023-03-13T09:30:00;13.80;99.90
13223;DHT22;6676;45.192;5.722;2023-03-13T09:32:51;13.90;99.90
13223;DHT22;6676;45.192;5.722;2023-03-13T09:35:48;14.00;99.90
13223;DHT22;6676;45.192;5.722;2023-03-13T09:38:41;14.00;99.90
13223;DHT22;6676;45.192;5.722;2023-03-13T09:41:37;14.00;99.90
13223;DHT22;6676;45.192;5.722;2023-03-13T09:44:38;14.00;99.90
13223;DHT22;6676;45.192;5.722;2023-03-13T09:47:44;14.10;99.90
13223;DHT22;6676;45.192;5.722;2023-03-13T09:50:46;14.20;99.90
13223;DHT22;6676;45.192;5.722;2023-03-13T09:56:27;14.30;99.90
13223;DHT22;6676;45.192;5.722;2023-03-13T09:59:21;14.40;99.90
13223;DHT22;6676;45.192;5.722;2023-03-13T10:05:20;14.80;99.90
13223;DHT22;6676;45.192;5.722;2023-03-13T10:08:23;14.90;99.90
13223;DHT22;6676;45.192;5.722;2023-03-13T10:11:19;15.00;99.90
13223;DHT22;6676;45.192;5.722;2023-03-13T10:17:06;15.10;99.90
13223;DHT22;6676;45.192;5.722;2023-03-13T10:20:00;15.10;99.90
13223;DHT22;6676;45.192;5.722;2023-03-13T10:23:04;15.30;99.90
13223;DHT22;6676;45.192;5.722;2023-03-13T10:25:58;15.40;99.90
13223;DHT22;6676;45.192;5.722;2023-03-13T10:29:23;15.50;99.90
13223;DHT22;6676;45.192;5.722;2023-03-13T10:32:16;15.60;99.90
13223;DHT22;6676;45.192;5.722;2023-03-13T10:37:49;16.00;99.90
13223;DHT22;6676;45.192;5.722;2023-03-13T10:40:40;16.10;99.90
13223;DHT22;6676;45.192;5.722;2023-03-13T10:46:24;16.50;99.90
13223;DHT22;6676;45.192;5.722;2023-03-13T10:51:59;17.00;99.90
13223;DHT22;6676;45.192;5.722;2023-03-13T10:54:54;17.10;99.90
13223;DHT22;6676;45.192;5.722;2023-03-13T10:57:55;17.30;99.90
13223;DHT22;6676;45.192;5.722;2023-03-13T11:00:51;17.50;99.90
13223;DHT22;6676;45.192;5.722;2023-03-13T11:03:51;17.60;99.90
13223;DHT22;6676;45.192;5.722;2023-03-13T11:06:42;17.90;99.90
13223;DHT22;6676;45.192;5.722;2023-03-13T11:09:35;18.10;99.90
13223;DHT22;6676;45.192;5.722;2023-03-13T11:15:22;18.50;99.90
13223;DHT22;6676;45.192;5.722;2023-03-13T11:18:17;18.60;99.90
13223;DHT22;6676;45.192;5.722;2023-03-13T11:23:57;18.70;99.90
13223;DHT22;6676;45.192;5.722;2023-03-13T11:26:55;18.60;99.90
13223;DHT22;6676;45.192;5.722;2023-03-13T11:32:39;18.40;99.90
13223;DHT22;6676;45.192;5.722;2023-03-13T11:38:17;18.70;99.90
13223;DHT22;6676;45.192;5.722;2023-03-13T11:41:19;18.90;99.90
13223;DHT22;6676;45.192;5.722;2023-03-13T11:44:22;19.00;99.90
13223;DHT22;6676;45.192;5.722;2023-03-13T11:47:27;18.90;99.90
13223;DHT22;6676;45.192;5.722;2023-03-13T11:53:23;19.10;99.90
13223;DHT22;6676;45.192;5.722;2023-03-13T11:56:20;19.10;99.90
13223;DHT22;6676;45.192;5.722;2023-03-13T11:59:29;19.00;99.90
13223;DHT22;6676;45.192;5.722;2023-03-13T12:02:21;19.20;99.90
13223;DHT22;6676;45.192;5.722;2023-03-13T12:05:15;19.20;99.90
13223;DHT22;6676;45.192;5.722;2023-03-13T12:08:14;19.40;99.90
13223;DHT22;6676;45.192;5.722;2023-03-13T12:11:12;19.60;99.90
13223;DHT22;6676;45.192;5.722;2023-03-13T12:14:12;19.70;99.90
13223;DHT22;6676;45.192;5.722;2023-03-13T12:19:54;20.20;99.90
13223;DHT22;6676;45.192;5.722;2023-03-13T12:22:49;20.50;99.90
13223;DHT22;6676;45.192;5.722;2023-03-13T12:25:43;20.50;99.90
13223;DHT22;6676;45.192;5.722;2023-03-13T12:34:11;21.30;99.90
13223;DHT22;6676;45.192;5.722;2023-03-13T12:37:05;21.60;99.90
13223;DHT22;6676;45.192;5.722;2023-03-13T12:40:00;22.10;99.90
13223;DHT22;6676;45.192;5.722;2023-03-13T12:45:53;22.70;99.90
13223;DHT22;6676;45.192;5.722;2023-03-13T12:58:47;24.30;95.00
13223;DHT22;6676;45.192;5.722;2023-03-13T13:01:42;24.40;94.70
13223;DHT22;6676;45.192;5.722;2023-03-13T13:07:22;24.60;92.60
13223;DHT22;6676;45.192;5.722;2023-03-13T13:10:19;24.70;92.00
13223;DHT22;6676;45.192;5.722;2023-03-13T13:13:27;24.70;90.70
13223;DHT22;6676;45.192;5.722;2023-03-13T13:16:17;24.80;90.10
13223;DHT22;6676;45.192;5.722;2023-03-13T13:19:44;24.90;88.00
13223;DHT22;6676;45.192;5.722;2023-03-13T13:22:49;24.80;87.20
13223;DHT22;6676;45.192;5.722;2023-03-13T13:25:41;24.90;85.40
13223;DHT22;6676;45.192;5.722;2023-03-13T13:28:34;24.90;84.70
13223;DHT22;6676;45.192;5.722;2023-03-13T13:31:54;24.90;84.00
13223;DHT22;6676;45.192;5.722;2023-03-13T13:34:55;24.90;84.10
13223;DHT22;6676;45.192;5.722;2023-03-13T13:37:48;25.00;83.30
13223;DHT22;6676;45.192;5.722;2023-03-13T13:43:42;25.00;81.90
13223;DHT22;6676;45.192;5.722;2023-03-13T13:46:34;24.90;82.10
13223;DHT22;6676;45.192;5.722;2023-03-13T13:49:35;24.90;81.70
13223;DHT22;6676;45.192;5.722;2023-03-13T13:52:36;25.00;81.20
13223;DHT22;6676;45.192;5.722;2023-03-13T13:55:49;25.10;80.20
13223;DHT22;6676;45.192;5.722;2023-03-13T13:58:46;25.00;80.60
13223;DHT22;6676;45.192;5.722;2023-03-13T14:01:39;25.00;80.20
13223;DHT22;6676;45.192;5.722;2023-03-13T14:04:36;25.10;80.20
13223;DHT22;6676;45.192;5.722;2023-03-13T14:07:40;25.10;80.00
13223;DHT22;6676;45.192;5.722;2023-03-13T14:10:38;25.20;79.60
13223;DHT22;6676;45.192;5.722;2023-03-13T14:13:30;25.10;79.60
13223;DHT22;6676;45.192;5.722;2023-03-13T14:16:24;25.30;79.10
13223;DHT22;6676;45.192;5.722;2023-03-13T14:19:24;25.40;79.00
13223;DHT22;6676;45.192;5.722;2023-03-13T14:22:17;25.40;79.80
13223;DHT22;6676;45.192;5.722;2023-03-13T14:25:09;25.30;80.50
13223;DHT22;6676;45.192;5.722;2023-03-13T14:28:01;25.50;80.00
13223;DHT22;6676;45.192;5.722;2023-03-13T14:30:56;25.60;79.20
13223;DHT22;6676;45.192;5.722;2023-03-13T14:33:48;25.80;78.70
13223;DHT22;6676;45.192;5.722;2023-03-13T14:36:47;25.80;79.10
13223;DHT22;6676;45.192;5.722;2023-03-13T14:39:42;25.80;78.40
13223;DHT22;6676;45.192;5.722;2023-03-13T14:42:38;25.80;77.70
13223;DHT22;6676;45.192;5.722;2023-03-13T14:45:33;25.90;77.20
13223;DHT22;6676;45.192;5.722;2023-03-13T14:48:29;25.70;77.00
13223;DHT22;6676;45.192;5.722;2023-03-13T14:51:23;26.00;76.60
13223;DHT22;6676;45.192;5.722;2023-03-13T14:54:30;26.10;76.30
13223;DHT22;6676;45.192;5.722;2023-03-13T14:57:23;25.80;76.10
13223;DHT22;6676;45.192;5.722;2023-03-13T15:00:34;25.50;77.00
13223;DHT22;6676;45.192;5.722;2023-03-13T15:03:31;25.30;78.20
13223;DHT22;6676;45.192;5.722;2023-03-13T15:06:23;25.10;78.20
13223;DHT22;6676;45.192;5.722;2023-03-13T15:09:18;24.90;78.80
13223;DHT22;6676;45.192;5.722;2023-03-13T15:12:15;24.90;78.70
13223;DHT22;6676;45.192;5.722;2023-03-13T15:15:09;24.80;78.90
13223;DHT22;6676;45.192;5.722;2023-03-13T15:18:01;24.70;79.30
13223;DHT22;6676;45.192;5.722;2023-03-13T15:20:54;24.50;79.70
13223;DHT22;6676;45.192;5.722;2023-03-13T15:23:49;24.50;80.30
13223;DHT22;6676;45.192;5.722;2023-03-13T15:26:40;24.80;80.10
13223;DHT22;6676;45.192;5.722;2023-03-13T15:29:32;24.90;80.50
13223;DHT22;6676;45.192;5.722;2023-03-13T15:32:25;24.70;80.70
13223;DHT22;6676;45.192;5.722;2023-03-13T15:35:26;24.90;80.90
13223;DHT22;6676;45.192;5.722;2023-03-13T15:38:19;25.20;80.60
13223;DHT22;6676;45.192;5.722;2023-03-13T15:41:11;25.70;80.10
13223;DHT22;6676;45.192;5.722;2023-03-13T15:44:03;25.80;79.90
13223;DHT22;6676;45.192;5.722;2023-03-13T15:46:54;25.60;79.60
13223;DHT22;6676;45.192;5.722;2023-03-13T15:49:46;25.40;79.50
13223;DHT22;6676;45.192;5.722;2023-03-13T15:52:38;25.20;79.90
13223;DHT22;6676;45.192;5.722;2023-03-13T15:55:30;25.30;80.20
13223;DHT22;6676;45.192;5.722;2023-03-13T15:58:22;25.50;79.90
13223;DHT22;6676;45.192;5.722;2023-03-13T16:01:16;25.70;79.80
13223;DHT22;6676;45.192;5.722;2023-03-13T16:04:08;26.30;78.70
13223;DHT22;6676;45.192;5.722;2023-03-13T16:07:00;26.60;78.10
13223;DHT22;6676;45.192;5.722;2023-03-13T16:09:52;26.90;77.10
13223;DHT22;6676;45.192;5.722;2023-03-13T16:12:43;26.80;77.00
13223;DHT22;6676;45.192;5.722;2023-03-13T16:18:22;27.00;77.20
13223;DHT22;6676;45.192;5.722;2023-03-13T16:21:18;27.20;76.70
13223;DHT22;6676;45.192;5.722;2023-03-13T16:24:10;27.10;76.70
13223;DHT22;6676;45.192;5.722;2023-03-13T16:27:04;26.40;77.40
13223;DHT22;6676;45.192;5.722;2023-03-13T16:29:55;25.80;78.30
13223;DHT22;6676;45.192;5.722;2023-03-13T16:32:47;25.30;79.50
13223;DHT22;6676;45.192;5.722;2023-03-13T16:35:38;25.20;80.30
13223;DHT22;6676;45.192;5.722;2023-03-13T16:38:30;25.60;79.80
13223;DHT22;6676;45.192;5.722;2023-03-13T16:41:23;25.90;80.00
13223;DHT22;6676;45.192;5.722;2023-03-13T16:44:15;26.00;79.50
13223;DHT22;6676;45.192;5.722;2023-03-13T16:47:15;25.50;79.70
13223;DHT22;6676;45.192;5.722;2023-03-13T16:50:22;24.70;80.90
13223;DHT22;6676;45.192;5.722;2023-03-13T16:53:13;24.30;82.20
13223;DHT22;6676;45.192;5.722;2023-03-13T16:56:08;23.90;83.30
13223;DHT22;6676;45.192;5.722;2023-03-13T16:59:01;23.60;84.30
13223;DHT22;6676;45.192;5.722;2023-03-13T17:01:52;23.30;85.40
13223;DHT22;6676;45.192;5.722;2023-03-13T17:04:44;23.20;85.80
13223;DHT22;6676;45.192;5.722;2023-03-13T17:07:36;23.00;86.50
13223;DHT22;6676;45.192;5.722;2023-03-13T17:10:30;22.80;87.30
13223;DHT22;6676;45.192;5.722;2023-03-13T17:13:23;22.70;87.90
13223;DHT22;6676;45.192;5.722;2023-03-13T17:16:17;22.60;88.10
13223;DHT22;6676;45.192;5.722;2023-03-13T17:19:12;22.60;88.60
13223;DHT22;6676;45.192;5.722;2023-03-13T17:22:05;22.50;89.10
13223;DHT22;6676;45.192;5.722;2023-03-13T17:24:57;22.50;89.50
13223;DHT22;6676;45.192;5.722;2023-03-13T17:27:48;22.40;90.00
13223;DHT22;6676;45.192;5.722;2023-03-13T17:30:40;22.40;90.30
13223;DHT22;6676;45.192;5.722;2023-03-13T17:33:31;22.20;90.50
13223;DHT22;6676;45.192;5.722;2023-03-13T17:36:23;22.20;90.60
13223;DHT22;6676;45.192;5.722;2023-03-13T17:39:16;22.00;91.10
13223;DHT22;6676;45.192;5.722;2023-03-13T17:42:08;22.00;91.30
13223;DHT22;6676;45.192;5.722;2023-03-13T17:44:59;22.00;91.40
13223;DHT22;6676;45.192;5.722;2023-03-13T17:47:51;21.90;91.40
13223;DHT22;6676;45.192;5.722;2023-03-13T17:50:43;21.80;91.70
13223;DHT22;6676;45.192;5.722;2023-03-13T17:53:35;21.70;91.90
13223;DHT22;6676;45.192;5.722;2023-03-13T17:56:28;21.70;92.10
13223;DHT22;6676;45.192;5.722;2023-03-13T17:59:20;21.70;92.30
13223;DHT22;6676;45.192;5.722;2023-03-13T18:02:12;21.80;92.40
13223;DHT22;6676;45.192;5.722;2023-03-13T18:05:06;21.60;92.70
13223;DHT22;6676;45.192;5.722;2023-03-13T18:07:58;21.70;92.90
13223;DHT22;6676;45.192;5.722;2023-03-13T18:10:49;21.60;93.00
13223;DHT22;6676;45.192;5.722;2023-03-13T18:13:42;21.60;93.20
13223;DHT22;6676;45.192;5.722;2023-03-13T18:16:36;21.60;93.30
13223;DHT22;6676;45.192;5.722;2023-03-13T18:19:30;21.70;93.30
13223;DHT22;6676;45.192;5.722;2023-03-13T18:22:23;21.60;93.40
13223;DHT22;6676;45.192;5.722;2023-03-13T18:25:21;21.40;93.40
13223;DHT22;6676;45.192;5.722;2023-03-13T18:30:53;21.50;93.60
13223;DHT22;6676;45.192;5.722;2023-03-13T18:33:45;21.50;93.60
13223;DHT22;6676;45.192;5.722;2023-03-13T18:36:37;21.50;93.70
13223;DHT22;6676;45.192;5.722;2023-03-13T18:42:08;21.50;93.70
13223;DHT22;6676;45.192;5.722;2023-03-13T18:45:00;21.50;93.60
13223;DHT22;6676;45.192;5.722;2023-03-13T18:47:52;21.50;93.50
13223;DHT22;6676;45.192;5.722;2023-03-13T18:50:44;21.40;93.70
13223;DHT22;6676;45.192;5.722;2023-03-13T18:53:35;21.40;94.00
13223;DHT22;6676;45.192;5.722;2023-03-13T18:56:29;21.40;94.30
13223;DHT22;6676;45.192;5.722;2023-03-13T18:59:21;21.30;94.50
13223;DHT22;6676;45.192;5.722;2023-03-13T19:02:16;21.30;94.70
13223;DHT22;6676;45.192;5.722;2023-03-13T19:05:09;21.40;94.80
13223;DHT22;6676;45.192;5.722;2023-03-13T19:10:44;21.30;95.00
13223;DHT22;6676;45.192;5.722;2023-03-13T19:16:23;21.30;95.20
13223;DHT22;6676;45.192;5.722;2023-03-13T19:22:01;21.20;95.70
13223;DHT22;6676;45.192;5.722;2023-03-13T19:24:53;21.20;95.90
13223;DHT22;6676;45.192;5.722;2023-03-13T19:27:45;21.10;96.10
13223;DHT22;6676;45.192;5.722;2023-03-13T19:30:38;21.10;96.50
13223;DHT22;6676;45.192;5.722;2023-03-13T19:36:13;21.10;96.50
13223;DHT22;6676;45.192;5.722;2023-03-13T19:39:13;21.10;96.70
13223;DHT22;6676;45.192;5.722;2023-03-13T19:42:05;21.10;96.80
13223;DHT22;6676;45.192;5.722;2023-03-13T19:47:40;21.00;97.10
13223;DHT22;6676;45.192;5.722;2023-03-13T19:50:32;20.90;97.50
13223;DHT22;6676;45.192;5.722;2023-03-13T19:53:24;20.90;97.50
13223;DHT22;6676;45.192;5.722;2023-03-13T19:56:20;20.80;97.90
13223;DHT22;6676;45.192;5.722;2023-03-13T20:01:51;20.80;98.50
13223;DHT22;6676;45.192;5.722;2023-03-13T20:04:44;20.70;99.50
13223;DHT22;6676;45.192;5.722;2023-03-13T20:07:40;20.70;99.90
13223;DHT22;6676;45.192;5.722;2023-03-13T20:10:31;20.70;99.90
13223;DHT22;6676;45.192;5.722;2023-03-13T20:16:04;20.30;99.90
13223;DHT22;6676;45.192;5.722;2023-03-13T20:18:57;20.20;99.90
13223;DHT22;6676;45.192;5.722;2023-03-13T20:21:49;20.10;99.90
13223;DHT22;6676;45.192;5.722;2023-03-13T20:24:41;20.10;99.90
13223;DHT22;6676;45.192;5.722;2023-03-13T20:27:33;20.10;99.90
13223;DHT22;6676;45.192;5.722;2023-03-13T20:33:08;19.80;99.90
13223;DHT22;6676;45.192;5.722;2023-03-13T20:36:01;20.00;99.90
13223;DHT22;6676;45.192;5.722;2023-03-13T20:38:53;19.90;99.90
13223;DHT22;6676;45.192;5.722;2023-03-13T20:41:44;19.90;99.90
13223;DHT22;6676;45.192;5.722;2023-03-13T20:44:36;19.80;99.90
13223;DHT22;6676;45.192;5.722;2023-03-13T20:47:27;19.70;99.90
13223;DHT22;6676;45.192;5.722;2023-03-13T20:50:19;19.60;99.90
13223;DHT22;6676;45.192;5.722;2023-03-13T20:53:11;19.60;99.90
13223;DHT22;6676;45.192;5.722;2023-03-13T20:56:10;19.50;99.90
13223;DHT22;6676;45.192;5.722;2023-03-13T20:59:03;19.40;99.90
13223;DHT22;6676;45.192;5.722;2023-03-13T21:01:54;19.40;99.90
13223;DHT22;6676;45.192;5.722;2023-03-13T21:07:26;19.40;99.90
13223;DHT22;6676;45.192;5.722;2023-03-13T21:10:17;19.30;99.90
13223;DHT22;6676;45.192;5.722;2023-03-13T21:15:50;19.20;99.90
13223;DHT22;6676;45.192;5.722;2023-03-13T21:18:42;19.00;99.90
13223;DHT22;6676;45.192;5.722;2023-03-13T21:24:13;18.60;99.90
13223;DHT22;6676;45.192;5.722;2023-03-13T21:27:05;18.10;99.90
13223;DHT22;6676;45.192;5.722;2023-03-13T21:32:39;17.40;99.90
13223;DHT22;6676;45.192;5.722;2023-03-13T21:35:30;17.30;99.90
13223;DHT22;6676;45.192;5.722;2023-03-13T21:41:01;17.10;99.90
13223;DHT22;6676;45.192;5.722;2023-03-13T21:46:37;17.10;99.90
13223;DHT22;6676;45.192;5.722;2023-03-13T21:49:28;17.10;99.90
13223;DHT22;6676;45.192;5.722;2023-03-13T21:55:16;16.20;99.90
13223;DHT22;6676;45.192;5.722;2023-03-13T21:58:08;15.20;99.90
13223;DHT22;6676;45.192;5.722;2023-03-13T22:00:59;14.70;99.90
13223;DHT22;6676;45.192;5.722;2023-03-13T22:03:51;14.60;99.90
13223;DHT22;6676;45.192;5.722;2023-03-13T22:06:42;14.50;99.90
13223;DHT22;6676;45.192;5.722;2023-03-13T22:09:37;14.30;99.90
13223;DHT22;6676;45.192;5.722;2023-03-13T22:12:29;14.00;99.90
13223;DHT22;6676;45.192;5.722;2023-03-13T22:15:21;13.80;99.90
13223;DHT22;6676;45.192;5.722;2023-03-13T22:18:13;13.60;99.90
13223;DHT22;6676;45.192;5.722;2023-03-13T22:21:06;13.60;99.90
13223;DHT22;6676;45.192;5.722;2023-03-13T22:23:58;13.50;99.90
13223;DHT22;6676;45.192;5.722;2023-03-13T22:29:32;13.20;99.90
13223;DHT22;6676;45.192;5.722;2023-03-13T22:32:24;13.10;99.90
13223;DHT22;6676;45.192;5.722;2023-03-13T22:35:16;13.00;99.90
13223;DHT22;6676;45.192;5.722;2023-03-13T22:38:12;12.90;99.90
13223;DHT22;6676;45.192;5.722;2023-03-13T22:41:06;12.90;99.90
13223;DHT22;6676;45.192;5.722;2023-03-13T22:46:49;12.70;99.90
13223;DHT22;6676;45.192;5.722;2023-03-13T22:49:41;12.70;99.90
13223;DHT22;6676;45.192;5.722;2023-03-13T22:55:14;12.90;99.90
13223;DHT22;6676;45.192;5.722;2023-03-13T22:58:06;13.00;99.90
13223;DHT22;6676;45.192;5.722;2023-03-13T23:00:57;13.10;99.90
13223;DHT22;6676;45.192;5.722;2023-03-13T23:06:28;13.10;99.90
13223;DHT22;6676;45.192;5.722;2023-03-13T23:09:21;13.10;99.90